Time;durP1;ratioP1;P1;durP2;ratioP2;P2;SDS_P1;SDS_P2;PMS_P1;PMS_P2;Temp;Humidity;BMP_temperature;BMP_pressure;BME280_temperature;BME280_humidity;BME280_pressure;Samples;Min_cycle;Max_cycle;Signal;HPM_P1;HPM_P2
2023/04/27 00:01:29;;;;;;;302.45;122.18;;;;;;;;;;5019544;28;20560;-64
2023/04/27 00:03:55;;;;;;;298.20;128.85;;;;;;;;;;5020336;28;20021;-64
2023/04/27 00:06:21;;;;;;;280.88;115.18;;;;;;;;;;5021069;28;20010;-63
2023/04/27 00:08:46;;;;;;;284.27;115.75;;;;;;;;;;5020613;28;20397;-62
2023/04/27 00:11:11;;;;;;;290.45;123.10;;;;;;;;;;5019347;28;20048;-63
2023/04/27 00:13:36;;;;;;;290.20;121.70;;;;;;;;;;5020155;28;20018;-63
2023/04/27 00:16:02;;;;;;;299.75;123.22;;;;;;;;;;5020754;28;20024;-64
2023/04/27 00:18:28;;;;;;;315.50;125.60;;;;;;;;;;5018708;28;20018;-62
2023/04/27 00:20:54;;;;;;;278.73;115.75;;;;;;;;;;5020530;28;20196;-63
2023/04/27 00:23:19;;;;;;;270.90;110.55;;;;;;;;;;5020447;28;20537;-62
2023/04/27 00:25:44;;;;;;;291.08;122.22;;;;;;;;;;5019718;28;20075;-63
2023/04/27 00:28:10;;;;;;;281.05;120.72;;;;;;;;;;5020373;28;20017;-62
2023/04/27 00:30:35;;;;;;;259.25;117.43;;;;;;;;;;5019929;28;20101;-62
2023/04/27 00:33:00;;;;;;;258.70;114.53;;;;;;;;;;5020232;28;20078;-63
2023/04/27 00:35:25;;;;;;;266.38;112.65;;;;;;;;;;5019876;28;20825;-62
2023/04/27 00:37:52;;;;;;;266.88;117.60;;;;;;;;;;5019685;28;20136;-63
2023/04/27 00:40:19;;;;;;;261.63;120.20;;;;;;;;;;5019340;28;20029;-64
2023/04/27 00:42:44;;;;;;;257.65;114.28;;;;;;;;;;5020100;28;20045;-63
2023/04/27 00:45:10;;;;;;;254.50;115.88;;;;;;;;;;5019744;28;20059;-63
2023/04/27 00:47:35;;;;;;;249.50;111.53;;;;;;;;;;5019448;28;20416;-62
2023/04/27 00:50:01;;;;;;;250.88;120.00;;;;;;;;;;5019746;28;20120;-62
2023/04/27 00:52:26;;;;;;;243.60;109.82;;;;;;;;;;5019263;28;20052;-64
2023/04/27 00:54:51;;;;;;;254.60;113.32;;;;;;;;;;5018419;28;20025;-63
2023/04/27 00:57:17;;;;;;;268.50;117.32;;;;;;;;;;5019505;28;20028;-63
2023/04/27 00:59:42;;;;;;;269.67;116.55;;;;;;;;;;5019727;28;20029;-63
2023/04/27 01:02:11;;;;;;;251.43;114.60;;;;;;;;;;5019246;28;20021;-62
2023/04/27 01:04:36;;;;;;;240.02;108.50;;;;;;;;;;5019429;28;20465;-62
2023/04/27 01:07:02;;;;;;;241.63;106.22;;;;;;;;;;5019593;28;20074;-63
2023/04/27 01:09:27;;;;;;;230.00;107.85;;;;;;;;;;5019368;28;20029;-62
2023/04/27 01:11:52;;;;;;;237.23;108.30;;;;;;;;;;5019407;28;20025;-63
2023/04/27 01:14:18;;;;;;;239.50;110.10;;;;;;;;;;5019135;28;20026;-63
2023/04/27 01:16:45;;;;;;;223.95;100.43;;;;;;;;;;5019136;28;20036;-64
2023/04/27 01:19:10;;;;;;;228.20;106.20;;;;;;;;;;5019329;28;20081;-63
2023/04/27 01:21:35;;;;;;;228.73;104.60;;;;;;;;;;5019291;28;20493;-63
2023/04/27 01:24:02;;;;;;;232.05;99.80;;;;;;;;;;5018850;28;20025;-62
2023/04/27 01:26:27;;;;;;;230.80;104.35;;;;;;;;;;5019253;28;20480;-62
2023/04/27 01:28:53;;;;;;;246.18;110.88;;;;;;;;;;5018894;28;20021;-63
2023/04/27 01:31:18;;;;;;;234.32;109.47;;;;;;;;;;5017671;28;20033;-63
2023/04/27 01:33:43;;;;;;;227.73;107.38;;;;;;;;;;5019234;28;20025;-63
2023/04/27 01:36:09;;;;;;;232.02;106.25;;;;;;;;;;5017988;28;20053;-63
2023/04/27 01:38:34;;;;;;;237.00;104.72;;;;;;;;;;5018589;28;20053;-63
2023/04/27 01:41:02;;;;;;;231.25;104.25;;;;;;;;;;5018581;28;20037;-63
2023/04/27 01:43:28;;;;;;;215.43;97.55;;;;;;;;;;5019101;28;20469;-63
2023/04/27 01:45:53;;;;;;;233.55;102.55;;;;;;;;;;5018270;28;20442;-63
2023/04/27 01:48:19;;;;;;;222.18;95.13;;;;;;;;;;5018864;28;20028;-62
2023/04/27 01:50:44;;;;;;;234.05;105.97;;;;;;;;;;5018518;28;20033;-63
2023/04/27 01:53:09;;;;;;;219.02;101.95;;;;;;;;;;5018804;28;20022;-64
2023/04/27 01:55:35;;;;;;;217.32;98.68;;;;;;;;;;5018881;28;20877;-62
2023/04/27 01:58:00;;;;;;;235.95;108.38;;;;;;;;;;5018759;28;20454;-63
2023/04/27 02:00:25;;;;;;;228.98;100.05;;;;;;;;;;5019023;28;20493;-62
2023/04/27 02:02:52;;;;;;;221.15;98.95;;;;;;;;;;5018784;28;20102;-63
2023/04/27 02:05:17;;;;;;;213.60;95.25;;;;;;;;;;5019039;28;20013;-62
2023/04/27 02:07:43;;;;;;;213.45;96.68;;;;;;;;;;5018420;28;20033;-65
2023/04/27 02:10:08;;;;;;;198.73;93.28;;;;;;;;;;5018889;28;20175;-63
2023/04/27 02:12:33;;;;;;;201.48;99.55;;;;;;;;;;5018747;28;20077;-62
2023/04/27 02:14:59;;;;;;;207.95;98.05;;;;;;;;;;5018649;28;20075;-63
2023/04/27 02:17:24;;;;;;;198.77;99.75;;;;;;;;;;5018313;28;20428;-62
2023/04/27 02:19:49;;;;;;;176.77;91.72;;;;;;;;;;5018580;28;20025;-63
2023/04/27 02:22:15;;;;;;;163.27;91.28;;;;;;;;;;5018325;28;20010;-63
2023/04/27 02:24:40;;;;;;;164.32;89.55;;;;;;;;;;5018822;28;20065;-63
2023/04/27 02:27:06;;;;;;;174.25;91.10;;;;;;;;;;5018575;28;20028;-63
2023/04/27 02:29:31;;;;;;;175.82;95.72;;;;;;;;;;5018348;28;20026;-63
2023/04/27 02:31:56;;;;;;;154.10;88.78;;;;;;;;;;5018800;28;20032;-62
2023/04/27 02:34:22;;;;;;;172.70;93.20;;;;;;;;;;5018495;28;20013;-63
2023/04/27 02:36:47;;;;;;;157.02;91.57;;;;;;;;;;5018360;28;20018;-62
2023/04/27 02:39:12;;;;;;;166.70;97.82;;;;;;;;;;5017982;28;20049;-63
2023/04/27 02:41:37;;;;;;;134.50;80.40;;;;;;;;;;5018960;28;20064;-62
2023/04/27 02:44:03;;;;;;;143.45;87.13;;;;;;;;;;5018496;28;20013;-63
2023/04/27 02:46:28;;;;;;;153.70;88.50;;;;;;;;;;5018414;28;20156;-62
2023/04/27 02:48:54;;;;;;;167.93;92.38;;;;;;;;;;5018555;28;20025;-62
2023/04/27 02:51:19;;;;;;;145.98;83.75;;;;;;;;;;5018183;28;20564;-63
2023/04/27 02:53:44;;;;;;;168.70;93.47;;;;;;;;;;5018390;28;20025;-62
2023/04/27 02:56:10;;;;;;;146.70;90.00;;;;;;;;;;5018328;28;20075;-62
2023/04/27 02:58:36;;;;;;;142.68;86.70;;;;;;;;;;5020049;28;20337;-61
2023/04/27 03:01:01;;;;;;;131.18;88.88;;;;;;;;;;5021700;28;20033;-62
2023/04/27 03:03:26;;;;;;;136.77;87.10;;;;;;;;;;5022144;28;20018;-63
2023/04/27 03:05:52;;;;;;;133.00;90.32;;;;;;;;;;5022048;28;20022;-62
2023/04/27 03:08:17;;;;;;;133.57;90.25;;;;;;;;;;5022035;28;20029;-62
2023/04/27 03:10:42;;;;;;;134.27;93.38;;;;;;;;;;5021573;28;20479;-63
2023/04/27 03:13:07;;;;;;;128.70;83.63;;;;;;;;;;5022048;28;20322;-62
2023/04/27 03:15:33;;;;;;;130.25;92.60;;;;;;;;;;5021495;28;20071;-62
2023/04/27 03:17:59;;;;;;;115.30;88.32;;;;;;;;;;5020386;28;20432;-63
2023/04/27 03:20:24;;;;;;;111.95;83.82;;;;;;;;;;5021608;28;20087;-63
2023/04/27 03:22:49;;;;;;;130.60;88.80;;;;;;;;;;5020260;28;20029;-62
2023/04/27 03:25:15;;;;;;;118.20;89.10;;;;;;;;;;5021712;28;20487;-62
2023/04/27 03:27:42;;;;;;;143.45;95.38;;;;;;;;;;5021238;28;20493;-63
2023/04/27 03:30:08;;;;;;;143.20;98.80;;;;;;;;;;5020201;28;20032;-63
2023/04/27 03:32:33;;;;;;;113.60;86.43;;;;;;;;;;5019688;28;20017;-64
2023/04/27 03:34:58;;;;;;;106.53;81.43;;;;;;;;;;5021747;28;20100;-64
2023/04/27 03:37:24;;;;;;;112.18;85.13;;;;;;;;;;5020520;28;20029;-64
2023/04/27 03:39:49;;;;;;;84.47;73.22;;;;;;;;;;5021215;28;20840;-64
2023/04/27 03:42:15;;;;;;;101.35;78.00;;;;;;;;;;5021479;28;20056;-64
2023/04/27 03:44:40;;;;;;;104.80;79.28;;;;;;;;;;5018309;28;20053;-64
2023/04/27 03:47:08;;;;;;;103.60;80.82;;;;;;;;;;5021299;28;20017;-65
2023/04/27 03:49:35;;;;;;;105.22;82.82;;;;;;;;;;5037532;28;20029;-63
2023/04/27 03:52:02;;;;;;;111.07;85.80;;;;;;;;;;5037777;28;20551;-64
2023/04/27 03:54:27;;;;;;;99.45;77.80;;;;;;;;;;5037381;28;20087;-63
2023/04/27 03:56:52;;;;;;;97.65;78.70;;;;;;;;;;5037877;28;20032;-63
2023/04/27 03:59:18;;;;;;;88.88;72.72;;;;;;;;;;5037599;28;20045;-62
2023/04/27 04:01:43;;;;;;;71.65;62.75;;;;;;;;;;5037744;28;20707;-64
2023/04/27 04:04:08;;;;;;;87.15;75.47;;;;;;;;;;5037498;28;20112;-64
2023/04/27 04:06:33;;;;;;;99.70;78.00;;;;;;;;;;5037546;28;20556;-63
2023/04/27 04:08:59;;;;;;;101.32;79.97;;;;;;;;;;5037182;28;20036;-64
2023/04/27 04:11:24;;;;;;;89.22;71.10;;;;;;;;;;5037298;28;20514;-64
2023/04/27 04:13:50;;;;;;;90.05;73.10;;;;;;;;;;5037270;28;20079;-64
2023/04/27 04:16:15;;;;;;;93.10;72.63;;;;;;;;;;5037412;28;20044;-64
2023/04/27 04:18:41;;;;;;;100.35;81.55;;;;;;;;;;5037556;28;20558;-64
2023/04/27 04:21:07;;;;;;;102.47;81.82;;;;;;;;;;5025218;28;20034;-64
2023/04/27 04:23:33;;;;;;;104.28;83.50;;;;;;;;;;5020505;28;20103;-64
2023/04/27 04:25:58;;;;;;;107.15;86.03;;;;;;;;;;5020359;28;20476;-63
2023/04/27 04:28:24;;;;;;;110.57;88.47;;;;;;;;;;5018970;28;20021;-64
2023/04/27 04:30:49;;;;;;;97.35;83.55;;;;;;;;;;5019063;28;20033;-63
2023/04/27 04:33:15;;;;;;;96.32;83.60;;;;;;;;;;5020292;28;20071;-63
2023/04/27 04:35:41;;;;;;;92.07;79.07;;;;;;;;;;5020091;28;20017;-63
2023/04/27 04:38:07;;;;;;;97.25;85.72;;;;;;;;;;5019424;28;20527;-63
2023/04/27 04:40:32;;;;;;;126.72;100.35;;;;;;;;;;5019150;28;20095;-63
2023/04/27 04:42:58;;;;;;;105.20;92.70;;;;;;;;;;5002025;28;20021;-63
2023/04/27 04:45:23;;;;;;;105.05;93.88;;;;;;;;;;5019901;28;20037;-63
2023/04/27 04:47:48;;;;;;;97.68;87.90;;;;;;;;;;5019678;28;20060;-63
2023/04/27 04:50:13;;;;;;;90.07;81.93;;;;;;;;;;5019767;28;20545;-64
2023/04/27 04:52:39;;;;;;;103.22;92.65;;;;;;;;;;5018758;28;20021;-63
2023/04/27 04:55:04;;;;;;;111.38;100.60;;;;;;;;;;5020029;28;20412;-63
2023/04/27 04:57:30;;;;;;;120.40;107.65;;;;;;;;;;5019683;28;20072;-63
2023/04/27 04:59:55;;;;;;;128.30;115.25;;;;;;;;;;5019513;28;20029;-63
2023/04/27 05:02:21;;;;;;;120.97;108.63;;;;;;;;;;5019758;28;20088;-64
2023/04/27 05:04:46;;;;;;;108.90;99.30;;;;;;;;;;5019466;28;20105;-61
2023/04/27 05:07:11;;;;;;;102.15;92.65;;;;;;;;;;5019526;28;20029;-62
2023/04/27 05:09:37;;;;;;;62.92;57.03;;;;;;;;;;5019313;28;20021;-63
2023/04/27 05:12:02;;;;;;;66.25;60.38;;;;;;;;;;5019581;28;20439;-63
2023/04/27 05:14:27;;;;;;;64.80;58.72;;;;;;;;;;5018905;28;20030;-63
2023/04/27 05:16:53;;;;;;;77.30;71.03;;;;;;;;;;5018160;28;20505;-63
2023/04/27 05:19:19;;;;;;;163.80;138.93;;;;;;;;;;5019570;28;20388;-63
2023/04/27 05:21:45;;;;;;;110.80;99.55;;;;;;;;;;5019301;28;20021;-62
2023/04/27 05:24:11;;;;;;;102.97;84.85;;;;;;;;;;5019324;28;20814;-65
2023/04/27 05:26:37;;;;;;;83.05;73.95;;;;;;;;;;5019302;28;20025;-64
2023/04/27 05:29:02;;;;;;;72.65;66.05;;;;;;;;;;5019525;28;20075;-64
2023/04/27 05:31:27;;;;;;;88.93;79.95;;;;;;;;;;5019042;28;20062;-63
2023/04/27 05:33:52;;;;;;;65.30;58.78;;;;;;;;;;5019766;28;20365;-63
2023/04/27 05:36:18;;;;;;;62.83;51.70;;;;;;;;;;5017224;28;20034;-64
2023/04/27 05:38:43;;;;;;;77.78;70.45;;;;;;;;;;5027516;28;20496;-63
2023/04/27 05:41:10;;;;;;;83.65;74.93;;;;;;;;;;5039408;28;20076;-63
2023/04/27 05:43:37;;;;;;;66.35;59.85;;;;;;;;;;5025809;28;20037;-63
2023/04/27 05:46:02;;;;;;;67.55;61.90;;;;;;;;;;5024190;28;20018;-62
2023/04/27 05:48:28;;;;;;;52.63;47.60;;;;;;;;;;5023966;28;20545;-63
2023/04/27 05:51:00;;;;;;;70.30;57.03;;;;;;;;;;5022336;28;20018;-65
2023/04/27 05:53:26;;;;;;;43.80;39.25;;;;;;;;;;5013937;28;20044;-63
2023/04/27 05:55:51;;;;;;;37.72;26.83;;;;;;;;;;5026869;28;20017;-63
2023/04/27 05:58:16;;;;;;;36.22;22.08;;;;;;;;;;5020644;28;20036;-65
2023/04/27 06:00:42;;;;;;;24.75;16.92;;;;;;;;;;5016975;28;20275;-64
2023/04/27 06:03:07;;;;;;;33.08;29.80;;;;;;;;;;5017004;28;20394;-64
2023/04/27 06:05:33;;;;;;;25.73;15.95;;;;;;;;;;5021368;28;20032;-64
2023/04/27 06:07:58;;;;;;;31.63;19.13;;;;;;;;;;5026363;28;20106;-65
2023/04/27 06:10:23;;;;;;;21.45;13.60;;;;;;;;;;5017273;28;20473;-64
2023/04/27 06:12:49;;;;;;;30.20;17.85;;;;;;;;;;5016539;28;20128;-63
2023/04/27 06:15:14;;;;;;;16.38;8.18;;;;;;;;;;5010346;28;20038;-67
2023/04/27 06:17:40;;;;;;;12.38;6.78;;;;;;;;;;5011712;28;20037;-59
2023/04/27 06:20:06;;;;;;;10.27;4.70;;;;;;;;;;5021947;28;20048;-62
2023/04/27 06:22:31;;;;;;;13.60;4.45;;;;;;;;;;5022626;28;20037;-59
2023/04/27 06:24:56;;;;;;;13.23;4.80;;;;;;;;;;5019923;28;20024;-62
2023/04/27 06:27:22;;;;;;;6.73;4.00;;;;;;;;;;5017538;28;20024;-63
2023/04/27 06:29:47;;;;;;;12.65;3.08;;;;;;;;;;5023127;28;20697;-62
2023/04/27 06:32:12;;;;;;;8.55;2.63;;;;;;;;;;5008753;28;20128;-61
2023/04/27 06:34:37;;;;;;;7.50;2.60;;;;;;;;;;5018365;28;20406;-62
2023/04/27 06:37:03;;;;;;;25.42;5.70;;;;;;;;;;5013877;28;20354;-63
2023/04/27 06:39:28;;;;;;;8.05;3.10;;;;;;;;;;5019352;28;20420;-64
2023/04/27 06:41:53;;;;;;;7.50;4.03;;;;;;;;;;5019924;28;20033;-62
2023/04/27 06:44:19;;;;;;;11.95;2.83;;;;;;;;;;5019878;28;20294;-64
2023/04/27 06:46:44;;;;;;;7.68;3.38;;;;;;;;;;5020755;28;20108;-62
2023/04/27 06:49:09;;;;;;;12.45;2.78;;;;;;;;;;5023028;28;20073;-62
2023/04/27 06:51:35;;;;;;;9.67;2.87;;;;;;;;;;5021346;28;20118;-63
2023/04/27 06:54:00;;;;;;;8.17;3.40;;;;;;;;;;5027783;28;20239;-62
2023/04/27 06:56:25;;;;;;;15.07;4.80;;;;;;;;;;5022478;28;20704;-62
2023/04/27 06:58:50;;;;;;;10.33;3.47;;;;;;;;;;5017031;28;20270;-62
2023/04/27 07:01:16;;;;;;;6.37;2.67;;;;;;;;;;5020953;28;21008;-62
2023/04/27 07:03:41;;;;;;;10.07;2.97;;;;;;;;;;5051598;28;20271;-65
2023/04/27 07:06:06;;;;;;;6.23;2.10;;;;;;;;;;5027803;28;20021;-61
2023/04/27 07:08:32;;;;;;;5.60;2.63;;;;;;;;;;5022360;28;20341;-64
2023/04/27 07:10:57;;;;;;;9.82;3.33;;;;;;;;;;5031327;28;20052;-63
2023/04/27 07:13:22;;;;;;;6.40;2.70;;;;;;;;;;5041577;28;20693;-63
2023/04/27 07:15:52;;;;;;;13.70;3.20;;;;;;;;;;5022122;28;20389;-62
2023/04/27 07:18:18;;;;;;;8.20;2.45;;;;;;;;;;5014072;28;20022;-61
2023/04/27 07:20:43;;;;;;;16.27;3.25;;;;;;;;;;5022253;28;20033;-57
2023/04/27 07:23:08;;;;;;;14.47;4.03;;;;;;;;;;5020658;28;20029;-65
2023/04/27 07:25:34;;;;;;;11.27;2.28;;;;;;;;;;5051099;28;20267;-66
2023/04/27 07:27:59;;;;;;;4.18;2.40;;;;;;;;;;5023104;28;20100;-64
2023/04/27 07:30:25;;;;;;;8.23;2.33;;;;;;;;;;5014786;28;20714;-65
2023/04/27 07:32:53;;;;;;;17.10;2.78;;;;;;;;;;5034932;28;20259;-62
2023/04/27 07:35:18;;;;;;;9.68;2.65;;;;;;;;;;5017362;28;20480;-61
2023/04/27 07:37:44;;;;;;;12.57;3.60;;;;;;;;;;5023601;28;20057;-62
2023/04/27 07:40:15;;;;;;;5.82;2.35;;;;;;;;;;5016766;28;20030;-62
2023/04/27 07:42:40;;;;;;;5.15;2.22;;;;;;;;;;5020598;28;20418;-63
2023/04/27 07:45:07;;;;;;;10.90;2.95;;;;;;;;;;5017878;28;20032;-65
2023/04/27 07:47:32;;;;;;;9.30;2.90;;;;;;;;;;5017279;28;21337;-63
2023/04/27 07:49:57;;;;;;;12.07;3.17;;;;;;;;;;5015434;28;20460;-62
2023/04/27 07:52:22;;;;;;;13.77;3.83;;;;;;;;;;5020302;28;20051;-60
2023/04/27 07:54:48;;;;;;;11.95;2.88;;;;;;;;;;5020338;28;20587;-60
2023/04/27 07:57:13;;;;;;;13.93;2.77;;;;;;;;;;5021369;28;20583;-62
2023/04/27 07:59:38;;;;;;;10.15;2.70;;;;;;;;;;5019360;28;20259;-64
2023/04/27 08:02:04;;;;;;;12.98;3.35;;;;;;;;;;5010182;28;20030;-62
2023/04/27 08:04:30;;;;;;;14.77;3.03;;;;;;;;;;5013269;28;20380;-62
2023/04/27 08:06:55;;;;;;;17.02;3.58;;;;;;;;;;5010480;28;20025;-62
2023/04/27 08:09:20;;;;;;;12.23;3.28;;;;;;;;;;5012498;28;20264;-57
2023/04/27 08:11:46;;;;;;;8.85;2.60;;;;;;;;;;5014686;28;20022;-60
2023/04/27 08:14:12;;;;;;;6.70;2.28;;;;;;;;;;5025873;28;20392;-62
2023/04/27 08:16:40;;;;;;;14.35;3.55;;;;;;;;;;5019403;28;20505;-62
2023/04/27 08:19:07;;;;;;;11.23;2.67;;;;;;;;;;5025728;28;20066;-61
2023/04/27 08:21:32;;;;;;;12.18;3.35;;;;;;;;;;5022372;28;20521;-61
2023/04/27 08:23:57;;;;;;;10.47;4.03;;;;;;;;;;5020105;28;20108;-62
2023/04/27 08:26:23;;;;;;;9.30;2.40;;;;;;;;;;5019729;28;20612;-64
2023/04/27 08:28:48;;;;;;;9.15;3.05;;;;;;;;;;5018179;28;20022;-63
2023/04/27 08:31:14;;;;;;;8.63;2.97;;;;;;;;;;5016735;28;20029;-61
2023/04/27 08:33:40;;;;;;;15.98;3.38;;;;;;;;;;5010548;28;20029;-60
2023/04/27 08:36:05;;;;;;;11.88;3.33;;;;;;;;;;5007703;28;20688;-59
2023/04/27 08:38:32;;;;;;;5.93;2.97;;;;;;;;;;5006337;28;20580;-60
2023/04/27 08:40:57;;;;;;;6.13;2.58;;;;;;;;;;5008014;28;20030;-61
2023/04/27 08:43:22;;;;;;;11.88;2.97;;;;;;;;;;5015051;28;20022;-62
2023/04/27 08:45:49;;;;;;;7.95;2.35;;;;;;;;;;5011218;28;20409;-61
2023/04/27 08:48:14;;;;;;;11.77;3.47;;;;;;;;;;5030062;28;20121;-62
2023/04/27 08:50:42;;;;;;;7.82;2.55;;;;;;;;;;5009677;28;20117;-60
2023/04/27 08:53:15;;;;;;;12.00;3.65;;;;;;;;;;5007714;28;20044;-61
2023/04/27 08:55:41;;;;;;;4.00;2.22;;;;;;;;;;5013341;28;20068;-61
2023/04/27 08:58:06;;;;;;;19.70;3.22;;;;;;;;;;5019683;28;20106;-61
2023/04/27 09:00:37;;;;;;;4.60;2.30;;;;;;;;;;5010204;28;20026;-61
2023/04/27 09:03:03;;;;;;;13.77;3.55;;;;;;;;;;5013590;28;20469;-61
2023/04/27 09:05:29;;;;;;;5.05;1.90;;;;;;;;;;5011297;28;20018;-61
2023/04/27 09:07:58;;;;;;;15.32;3.80;;;;;;;;;;5006687;28;20181;-61
2023/04/27 09:10:24;;;;;;;9.98;2.80;;;;;;;;;;5012459;28;20041;-61
2023/04/27 09:12:56;;;;;;;13.23;3.63;;;;;;;;;;5018424;28;20025;-61
2023/04/27 09:15:21;;;;;;;14.85;4.13;;;;;;;;;;5022728;28;20033;-62
2023/04/27 09:17:51;;;;;;;16.02;4.25;;;;;;;;;;5032424;28;20109;-59
2023/04/27 09:20:17;;;;;;;25.48;4.75;;;;;;;;;;5018136;28;20021;-61
2023/04/27 09:22:47;;;;;;;6.20;2.90;;;;;;;;;;5005889;28;20358;-61
2023/04/27 09:25:30;;;;;;;5.30;2.45;;;;;;;;;;5024457;28;20021;-60
2023/04/27 09:27:56;;;;;;;5.72;2.72;;;;;;;;;;5024488;28;20108;-61
2023/04/27 09:30:22;;;;;;;9.30;2.60;;;;;;;;;;5024512;28;20052;-59
2023/04/27 09:32:51;;;;;;;18.38;3.85;;;;;;;;;;5023506;28;20033;-60
2023/04/27 09:35:21;;;;;;;9.57;2.47;;;;;;;;;;5024880;28;20347;-60
2023/04/27 09:37:47;;;;;;;5.00;2.45;;;;;;;;;;5024272;28;20029;-61
2023/04/27 09:40:12;;;;;;;6.68;2.20;;;;;;;;;;5024257;28;20401;-61
2023/04/27 09:42:37;;;;;;;4.82;2.10;;;;;;;;;;5024449;28;20470;-61
2023/04/27 09:45:03;;;;;;;6.60;1.92;;;;;;;;;;5024198;28;20100;-60
2023/04/27 09:47:28;;;;;;;6.32;2.17;;;;;;;;;;5022198;28;20120;-59
2023/04/27 09:49:54;;;;;;;7.85;2.92;;;;;;;;;;5023553;28;20477;-58
2023/04/27 09:52:20;;;;;;;6.45;2.63;;;;;;;;;;5024240;28;20481;-58
2023/04/27 09:54:45;;;;;;;8.45;2.80;;;;;;;;;;5021884;28;20500;-58
2023/04/27 09:57:23;;;;;;;9.43;2.90;;;;;;;;;;5024523;28;20244;-56
2023/04/27 10:00:01;;;;;;;9.88;2.50;;;;;;;;;;5021848;28;20150;-58
2023/04/27 10:02:28;;;;;;;8.88;2.55;;;;;;;;;;5024145;28;20488;-57
2023/04/27 10:05:20;;;;;;;7.32;2.40;;;;;;;;;;5012580;28;20076;-59
2023/04/27 10:07:45;;;;;;;6.93;2.47;;;;;;;;;;5004370;28;20037;-59
2023/04/27 10:10:17;;;;;;;6.55;2.70;;;;;;;;;;4988956;28;20033;-60
2023/04/27 10:12:42;;;;;;;7.10;2.70;;;;;;;;;;5003607;28;20052;-60
2023/04/27 10:15:15;;;;;;;7.13;2.38;;;;;;;;;;5006194;28;20038;-59
2023/04/27 10:17:49;;;;;;;6.40;3.33;;;;;;;;;;5004795;28;20026;-58
2023/04/27 10:20:16;;;;;;;6.97;3.38;;;;;;;;;;4997754;28;20045;-56
2023/04/27 10:22:48;;;;;;;5.15;2.38;;;;;;;;;;5000680;28;20022;-59
2023/04/27 10:25:25;;;;;;;6.57;2.58;;;;;;;;;;5001949;28;20069;-62
2023/04/27 10:27:52;;;;;;;12.18;3.53;;;;;;;;;;5001414;28;20390;-61
2023/04/27 10:30:18;;;;;;;5.32;2.28;;;;;;;;;;4995090;28;20120;-61
2023/04/27 10:32:54;;;;;;;3.55;1.80;;;;;;;;;;5000310;28;20065;-61
2023/04/27 10:35:20;;;;;;;7.85;2.90;;;;;;;;;;4994484;28;20553;-58
2023/04/27 10:37:46;;;;;;;5.97;2.53;;;;;;;;;;4991994;28;20034;-61
2023/04/27 10:40:18;;;;;;;9.48;3.10;;;;;;;;;;5005320;28;20349;-62
2023/04/27 10:42:44;;;;;;;6.80;2.88;;;;;;;;;;5012927;28;20055;-59
2023/04/27 10:45:11;;;;;;;10.90;4.72;;;;;;;;;;5011193;28;20120;-65
2023/04/27 10:47:40;;;;;;;7.20;2.65;;;;;;;;;;5024351;28;20036;-59
2023/04/27 10:50:07;;;;;;;11.00;2.80;;;;;;;;;;5020298;28;20029;-59
2023/04/27 10:52:32;;;;;;;10.65;3.28;;;;;;;;;;5012623;28;20373;-59
2023/04/27 10:55:03;;;;;;;9.23;2.92;;;;;;;;;;5014505;28;20080;-60
2023/04/27 10:57:28;;;;;;;10.15;3.78;;;;;;;;;;5016427;28;20025;-59
2023/04/27 10:59:54;;;;;;;6.82;2.85;;;;;;;;;;5016230;28;20037;-58
2023/04/27 11:02:26;;;;;;;13.80;3.13;;;;;;;;;;5029211;28;20025;-59
2023/04/27 11:04:52;;;;;;;7.88;2.30;;;;;;;;;;5020837;28;20025;-56
2023/04/27 11:07:26;;;;;;;4.63;2.07;;;;;;;;;;5006921;28;20030;-59
2023/04/27 11:09:52;;;;;;;11.25;3.60;;;;;;;;;;5011019;28;20293;-60
2023/04/27 11:12:17;;;;;;;12.30;3.22;;;;;;;;;;5013566;28;20026;-58
2023/04/27 11:14:43;;;;;;;14.82;4.15;;;;;;;;;;5024702;28;20108;-58
2023/04/27 11:17:08;;;;;;;13.35;4.15;;;;;;;;;;5009839;28;20046;-60
2023/04/27 11:19:43;;;;;;;11.00;4.60;;;;;;;;;;5007914;28;20063;-58
2023/04/27 11:22:08;;;;;;;12.80;3.83;;;;;;;;;;5015249;28;20171;-58
2023/04/27 11:24:33;;;;;;;8.30;3.20;;;;;;;;;;5024862;28;20108;-60
2023/04/27 11:26:59;;;;;;;10.70;3.67;;;;;;;;;;5025935;28;20753;-60
2023/04/27 11:29:24;;;;;;;7.20;2.75;;;;;;;;;;5022540;28;20116;-60
2023/04/27 11:31:50;;;;;;;11.98;3.20;;;;;;;;;;5024084;28;20029;-60
2023/04/27 11:34:22;;;;;;;10.93;3.67;;;;;;;;;;5008489;28;20112;-60
2023/04/27 11:36:58;;;;;;;12.23;3.00;;;;;;;;;;5008667;28;20029;-59
2023/04/27 11:39:25;;;;;;;8.48;3.22;;;;;;;;;;5012345;28;20500;-57
2023/04/27 11:41:51;;;;;;;11.45;3.40;;;;;;;;;;5010347;28;20025;-60
2023/04/27 11:44:16;;;;;;;11.88;3.60;;;;;;;;;;5011345;28;20661;-62
2023/04/27 11:46:43;;;;;;;12.32;3.55;;;;;;;;;;5019196;28;20022;-61
2023/04/27 11:49:09;;;;;;;13.23;4.00;;;;;;;;;;5009733;28;20673;-62
2023/04/27 11:51:38;;;;;;;10.95;3.55;;;;;;;;;;5017434;28;20037;-61
2023/04/27 11:54:04;;;;;;;14.52;3.95;;;;;;;;;;5022138;28;20080;-62
2023/04/27 11:56:39;;;;;;;9.93;3.40;;;;;;;;;;5005138;28;20033;-63
2023/04/27 11:59:05;;;;;;;8.10;2.83;;;;;;;;;;5016213;28;20026;-60
2023/04/27 12:01:31;;;;;;;151.18;140.82;;;;;;;;;;5013512;28;20032;-64
2023/04/27 12:03:57;;;;;;;1145.60;390.25;;;;;;;;;;5014427;28;20026;-62
2023/04/27 12:06:23;;;;;;;713.88;286.48;;;;;;;;;;5014499;28;20036;-62
2023/04/27 12:08:48;;;;;;;650.72;272.10;;;;;;;;;;5012796;28;20060;-64
2023/04/27 12:11:14;;;;;;;425.23;396.80;;;;;;;;;;5020388;28;20061;-65
2023/04/27 12:13:39;;;;;;;621.30;569.60;;;;;;;;;;5006718;28;20052;-63
2023/04/27 12:16:04;;;;;;;641.97;585.63;;;;;;;;;;5007486;28;21169;-63
2023/04/27 12:18:30;;;;;;;640.38;581.70;;;;;;;;;;5022173;28;20049;-63
2023/04/27 12:20:55;;;;;;;645.25;585.22;;;;;;;;;;5013739;28;20496;-64
2023/04/27 12:23:20;;;;;;;637.30;576.60;;;;;;;;;;5015616;28;20028;-60
2023/04/27 12:25:45;;;;;;;626.05;567.92;;;;;;;;;;5018849;28;20317;-64
2023/04/27 12:28:16;;;;;;;624.13;563.42;;;;;;;;;;5015697;28;20013;-62
2023/04/27 12:30:41;;;;;;;617.45;555.15;;;;;;;;;;5016175;28;20065;-63
2023/04/27 12:33:09;;;;;;;602.97;541.53;;;;;;;;;;5031866;28;20053;-60
2023/04/27 12:35:35;;;;;;;610.72;548.33;;;;;;;;;;5014660;28;20479;-62
2023/04/27 12:38:02;;;;;;;615.33;551.95;;;;;;;;;;5008768;28;20038;-62
2023/04/27 12:40:27;;;;;;;622.47;557.45;;;;;;;;;;5006662;28;20022;-61
2023/04/27 12:42:52;;;;;;;634.95;570.75;;;;;;;;;;5020863;28;20154;-61
2023/04/27 12:45:18;;;;;;;644.72;583.13;;;;;;;;;;5020364;28;20033;-62
2023/04/27 12:47:43;;;;;;;657.33;594.33;;;;;;;;;;5014400;28;20633;-61
2023/04/27 12:50:08;;;;;;;654.63;592.55;;;;;;;;;;5013636;28;20025;-62
2023/04/27 12:52:34;;;;;;;661.17;595.63;;;;;;;;;;5009432;28;20468;-63
2023/04/27 12:54:59;;;;;;;661.03;595.55;;;;;;;;;;5022462;28;20014;-62
2023/04/27 12:57:25;;;;;;;678.33;616.15;;;;;;;;;;5007572;28;20075;-61
2023/04/27 12:59:51;;;;;;;678.63;616.88;;;;;;;;;;5010653;28;20116;-62
2023/04/27 13:02:16;;;;;;;677.78;615.50;;;;;;;;;;5004435;28;20037;-62
2023/04/27 13:04:41;;;;;;;663.67;601.65;;;;;;;;;;5004133;28;20018;-62
2023/04/27 13:07:07;;;;;;;664.70;602.42;;;;;;;;;;5004143;28;20025;-62
2023/04/27 13:09:32;;;;;;;655.00;589.47;;;;;;;;;;5042248;28;20117;-62
2023/04/27 13:11:57;;;;;;;650.13;588.03;;;;;;;;;;5010817;28;20102;-62
2023/04/27 13:14:23;;;;;;;645.88;583.20;;;;;;;;;;5020805;28;20265;-60
2023/04/27 13:16:48;;;;;;;631.78;570.15;;;;;;;;;;5004297;28;20081;-61
2023/04/27 13:19:14;;;;;;;627.00;564.75;;;;;;;;;;5005606;28;20470;-61
2023/04/27 13:21:39;;;;;;;612.70;545.17;;;;;;;;;;5013068;28;20036;-62
2023/04/27 13:24:04;;;;;;;619.17;558.10;;;;;;;;;;5039687;28;20522;-60
2023/04/27 13:26:30;;;;;;;613.45;552.35;;;;;;;;;;5014896;28;20025;-61
2023/04/27 13:28:56;;;;;;;597.85;533.08;;;;;;;;;;5021503;28;20093;-61
2023/04/27 13:31:21;;;;;;;608.03;546.92;;;;;;;;;;5013560;28;20551;-60
2023/04/27 13:33:46;;;;;;;598.78;535.33;;;;;;;;;;5015042;28;20394;-62
2023/04/27 13:36:12;;;;;;;602.85;537.88;;;;;;;;;;5014039;28;20029;-61
2023/04/27 13:38:38;;;;;;;582.42;518.45;;;;;;;;;;5020165;28;20042;-61
2023/04/27 13:41:03;;;;;;;593.38;530.13;;;;;;;;;;5021376;28;20107;-61
2023/04/27 13:43:29;;;;;;;585.10;521.38;;;;;;;;;;5019918;28;20067;-62
2023/04/27 13:45:55;;;;;;;577.33;511.38;;;;;;;;;;5014312;28;20085;-61
2023/04/27 13:48:21;;;;;;;574.97;504.98;;;;;;;;;;5008034;28;20524;-63
2023/04/27 13:50:46;;;;;;;569.83;497.60;;;;;;;;;;5039082;28;20194;-60
2023/04/27 13:53:12;;;;;;;570.03;506.83;;;;;;;;;;5022982;28;20105;-60
2023/04/27 13:55:37;;;;;;;573.20;502.80;;;;;;;;;;5020428;28;20026;-61
2023/04/27 13:58:03;;;;;;;604.05;494.08;;;;;;;;;;5019062;28;20049;-61
2023/04/27 14:00:32;;;;;;;582.38;502.45;;;;;;;;;;5011402;28;20272;-62
2023/04/27 14:02:57;;;;;;;601.58;492.52;;;;;;;;;;5023423;28;20013;-61
2023/04/27 14:05:22;;;;;;;618.72;497.88;;;;;;;;;;5023025;28;20539;-60
2023/04/27 14:07:48;;;;;;;639.30;487.00;;;;;;;;;;5024482;28;20033;-61